Time;durP1;ratioP1;P1;durP2;ratioP2;P2;SDS_P1;SDS_P2;PMS_P1;PMS_P2;Temp;Humidity;BMP_temperature;BMP_pressure;BME280_temperature;BME280_humidity;BME280_pressure;Samples;Min_cycle;Max_cycle;Signal;HPM_P1;HPM_P2
2022/06/13 00:01:31;;;;;;;7.37;3.50;;;;;;;22.51;51.48;99865.13;4352065;32;33592;-91
2022/06/13 00:04:04;;;;;;;7.03;3.60;;;;;;;22.43;51.80;99871.28;4364274;32;33695;-91
2022/06/13 00:06:35;;;;;;;6.97;3.45;;;;;;;22.43;51.93;99868.47;4351717;32;33452;-90
2022/06/13 00:09:06;;;;;;;8.45;3.33;;;;;;;22.39;51.96;99871.00;4352081;32;34669;-90
2022/06/13 00:11:40;;;;;;;6.07;3.58;;;;;;;22.38;51.82;99860.94;4351608;32;31876;-91
2022/06/13 00:14:11;;;;;;;5.68;3.40;;;;;;;22.32;51.87;99859.28;4363545;32;34016;-90
2022/06/13 00:16:42;;;;;;;6.45;3.70;;;;;;;22.23;51.99;99863.75;4351407;32;33034;-91
2022/06/13 00:19:13;;;;;;;9.00;4.05;;;;;;;22.27;51.82;99864.87;4364045;32;33171;-90
2022/06/13 00:21:41;;;;;;;8.25;3.95;;;;;;;22.24;51.81;99871.03;4351489;32;33923;-88
2022/06/13 00:24:15;;;;;;;6.53;3.62;;;;;;;22.29;51.67;99863.47;4363949;32;33466;-89
2022/06/13 00:26:46;;;;;;;7.28;3.70;;;;;;;22.23;51.86;99858.16;4365555;32;34427;-91
2022/06/13 00:29:16;;;;;;;6.90;3.47;;;;;;;22.22;51.96;99856.47;4365722;32;33285;-90
2022/06/13 00:31:46;;;;;;;6.25;3.72;;;;;;;22.15;52.17;99853.12;4353439;32;33248;-90
2022/06/13 00:34:23;;;;;;;6.00;3.30;;;;;;;22.14;52.26;99851.47;4365073;32;33556;-90
2022/06/13 00:36:56;;;;;;;6.15;3.42;;;;;;;22.04;52.63;99843.13;4365623;32;35271;-90
2022/06/13 00:39:24;;;;;;;6.90;3.45;;;;;;;21.98;52.88;99853.44;4364898;32;34147;-91
2022/06/13 00:41:55;;;;;;;6.95;3.12;;;;;;;21.95;52.96;99846.44;4353280;32;31999;-91
2022/06/13 00:44:27;;;;;;;5.72;3.58;;;;;;;21.95;52.79;99842.81;4353177;32;33666;-90
2022/06/13 00:46:59;;;;;;;6.35;3.50;;;;;;;21.91;52.58;99838.88;4353372;32;34464;-90
2022/06/13 00:49:39;;;;;;;5.32;3.30;;;;;;;21.99;52.15;99841.13;4365422;32;34615;-89
2022/06/13 00:52:25;;;;;;;5.55;3.67;;;;;;;22.07;51.98;99836.97;4365170;32;32519;-91
2022/06/13 00:54:55;;;;;;;;;;;;;;;21.83;52.78;99834.69;4365996;32;33908;-91
2022/06/13 00:57:25;;;;;;;6.28;3.30;;;;;;;21.84;52.82;99835.53;4340727;32;34108;-90
2022/06/13 01:00:03;;;;;;;8.07;3.55;;;;;;;21.83;52.73;99834.69;4353095;32;33887;-90
2022/06/13 01:02:36;;;;;;;5.68;3.45;;;;;;;21.73;53.04;99831.91;4365999;32;33394;-91
2022/06/13 01:05:10;;;;;;;6.85;3.45;;;;;;;21.64;53.35;99827.97;4353616;32;33832;-91
2022/06/13 01:07:45;;;;;;;5.30;3.53;;;;;;;21.61;53.30;99826.59;4352850;32;35463;-91
2022/06/13 01:13:07;;;;;;;5.45;3.00;;;;;;;21.54;53.17;99816.78;4367702;32;33495;-89
2022/06/13 01:15:54;;;;;;;7.30;3.30;;;;;;;21.48;53.39;99818.75;4352763;32;32972;-86
2022/06/13 01:18:34;;;;;;;6.12;3.35;;;;;;;21.39;53.93;99816.81;4352610;32;33099;-85
2022/06/13 01:21:34;;;;;;;7.05;3.60;;;;;;;21.36;53.95;99810.66;4353174;32;32614;-87
2022/06/13 01:24:30;;;;;;;9.20;3.70;;;;;;;21.36;53.95;99816.25;4338601;32;32022;-86
2022/06/13 01:26:58;;;;;;;7.50;3.40;;;;;;;21.40;53.82;99812.91;4351859;32;32371;-86
2022/06/13 01:29:57;;;;;;;6.78;3.45;;;;;;;21.27;54.14;99815.09;4365213;32;34350;-86
2022/06/13 01:32:33;;;;;;;6.90;2.85;;;;;;;21.30;54.17;99813.72;4364422;32;34798;-87
2022/06/13 01:35:13;;;;;;;5.62;3.47;;;;;;;21.32;54.08;99808.69;4364689;32;33665;-87
2022/06/13 01:38:17;;;;;;;6.25;3.78;;;;;;;21.29;54.07;99798.91;4364881;32;33683;-87
2022/06/13 01:40:51;;;;;;;5.62;3.30;;;;;;;21.13;54.43;99801.91;4328322;32;34339;-87
2022/06/13 01:43:22;;;;;;;6.68;3.35;;;;;;;21.05;54.84;99814.47;4351987;32;32570;-88
2022/06/13 01:46:06;;;;;;;5.07;3.22;;;;;;;20.99;54.95;99812.75;4352747;32;32048;-88
2022/06/13 01:48:49;;;;;;;5.45;3.50;;;;;;;21.03;54.62;99809.16;4365154;32;33592;-86
2022/06/13 01:51:49;;;;;;;5.50;3.37;;;;;;;21.07;54.40;99801.06;4352430;32;33916;-88
2022/06/13 01:54:30;;;;;;;9.45;3.47;;;;;;;20.99;54.47;99808.03;4364947;32;32515;-86
2022/06/13 01:57:30;;;;;;;5.90;3.28;;;;;;;21.05;54.24;99808.88;4353192;32;33592;-87
2022/06/13 02:00:04;;;;;;;5.65;3.30;;;;;;;21.02;54.28;99793.53;4345942;32;32411;-86
2022/06/13 02:02:54;;;;;;;6.07;3.33;;;;;;;20.93;54.55;99800.75;4352671;32;33831;-87
2022/06/13 02:05:38;;;;;;;6.25;3.25;;;;;;;20.99;54.39;99790.44;4352835;32;33798;-88
2022/06/13 02:08:16;;;;;;;4.82;3.22;;;;;;;20.90;54.67;99789.28;4364484;32;32070;-87
2022/06/13 02:11:00;;;;;;;6.15;3.45;;;;;;;20.83;54.85;99795.13;4363929;32;33951;-87
2022/06/13 02:13:45;;;;;;;5.40;3.30;;;;;;;20.85;54.76;99797.66;4352600;32;33901;-87
2022/06/13 02:16:26;;;;;;;8.77;3.72;;;;;;;20.84;54.95;99791.22;4365035;32;32848;-87
2022/06/13 02:19:01;;;;;;;6.75;3.45;;;;;;;20.83;54.83;99795.13;4352732;32;34506;-87
2022/06/13 02:21:47;;;;;;;4.97;3.03;;;;;;;20.82;54.76;99795.41;4364950;32;33893;-86
2022/06/13 02:24:16;;;;;;;;;;;;;;;20.78;54.62;99795.16;4365562;32;34399;-86
2022/06/13 02:26:49;;;;;;;4.70;3.30;;;;;;;20.81;54.51;99796.53;4364577;32;32609;-89
2022/06/13 02:29:33;;;;;;;4.62;2.87;;;;;;;20.78;54.60;99802.69;4352215;32;32859;-89
2022/06/13 02:32:29;;;;;;;6.47;3.12;;;;;;;20.64;55.13;99797.59;4364244;32;33791;-86
2022/06/13 02:35:07;;;;;;;5.32;3.58;;;;;;;20.68;54.95;99793.16;4352820;32;34503;-85
2022/06/13 02:37:42;;;;;;;5.90;3.33;;;;;;;20.64;54.98;99792.03;4364476;32;34658;-86
2022/06/13 02:40:18;;;;;;;4.93;3.30;;;;;;;20.48;55.51;99795.84;4364289;32;31955;-87
2022/06/13 02:43:00;;;;;;;6.95;3.00;;;;;;;20.52;55.44;99790.56;4351992;32;33183;-89
2022/06/13 02:45:36;;;;;;;6.57;3.30;;;;;;;20.44;55.52;99794.72;4364363;32;34382;-86
2022/06/13 02:48:10;;;;;;;6.07;3.25;;;;;;;20.43;55.52;99793.03;4363672;32;34121;-86
2022/06/13 02:50:57;;;;;;;6.30;3.20;;;;;;;20.47;55.46;99799.75;4364431;32;34177;-87
2022/06/13 02:53:42;;;;;;;6.28;3.33;;;;;;;20.51;55.34;99789.72;4364271;32;33488;-88
2022/06/13 02:56:11;;;;;;;5.35;3.45;;;;;;;20.43;55.57;99792.19;4364052;32;32953;-87
2022/06/13 02:59:01;;;;;;;5.30;3.47;;;;;;;20.38;55.73;99793.00;4351435;32;33219;-85
2022/06/13 03:01:41;;;;;;;9.18;3.65;;;;;;;20.43;55.56;99790.25;4350757;32;33989;-84
2022/06/13 03:04:14;;;;;;;7.25;3.65;;;;;;;20.51;55.25;99789.72;4361787;32;32193;-86
2022/06/13 03:07:07;;;;;;;5.25;3.40;;;;;;;20.45;55.48;99787.19;4349603;32;34056;-86
2022/06/13 03:09:56;;;;;;;5.35;3.17;;;;;;;20.44;55.54;99789.13;4346184;32;33603;-85
2022/06/13 03:12:24;;;;;;;4.85;3.10;;;;;;;20.40;55.65;99790.78;4349972;32;32116;-86
2022/06/13 03:15:22;;;;;;;5.75;3.37;;;;;;;20.29;56.14;99789.84;4364179;32;33890;-86
2022/06/13 03:18:11;;;;;;;8.57;3.37;;;;;;;20.25;56.43;99788.72;4349006;32;34418;-88
2022/06/13 03:20:57;;;;;;;6.28;3.45;;;;;;;20.23;56.42;99793.72;4352421;32;34847;-87
2022/06/13 03:23:45;;;;;;;6.25;3.75;;;;;;;20.33;56.16;99792.94;4352122;32;31994;-87
2022/06/13 03:26:20;;;;;;;4.93;3.40;;;;;;;20.30;56.22;99796.28;4352027;32;34469;-87
2022/06/13 03:29:01;;;;;;;8.00;3.50;;;;;;;20.29;56.20;99789.84;4364178;32;34065;-88
2022/06/13 03:31:37;;;;;;;7.78;3.17;;;;;;;20.23;56.30;99781.72;4352401;32;32499;-87
2022/06/13 03:34:09;;;;;;;5.68;3.35;;;;;;;20.49;55.48;99789.16;4364367;32;34374;-87
2022/06/13 03:36:59;;;;;;;6.35;3.33;;;;;;;20.37;55.96;99785.72;4364150;32;32329;-87
2022/06/13 03:39:40;;;;;;;5.65;3.30;;;;;;;20.33;56.24;99776.22;4351616;32;33821;-87
2022/06/13 03:42:14;;;;;;;5.03;3.15;;;;;;;20.33;56.51;99781.78;4364385;32;34735;-87
2022/06/13 03:44:59;;;;;;;5.60;3.17;;;;;;;20.43;56.32;99783.81;4351667;32;32035;-86
2022/06/13 03:47:34;;;;;;;8.48;3.37;;;;;;;20.45;56.10;99773.25;4363883;32;32413;-86
2022/06/13 03:50:22;;;;;;;5.35;3.22;;;;;;;20.49;55.79;99769.62;4352126;32;35261;-87
2022/06/13 03:52:58;;;;;;;4.68;2.90;;;;;;;20.48;55.77;99770.75;4363980;32;34134;-84
2022/06/13 03:55:33;;;;;;;6.28;3.20;;;;;;;20.45;55.89;99776.88;4363882;32;33030;-86
2022/06/13 03:58:12;;;;;;;4.55;2.97;;;;;;;20.55;55.66;99776.09;4363752;32;33813;-86
2022/06/13 04:00:58;;;;;;;5.85;3.60;;;;;;;20.64;55.46;99769.72;4363364;32;34550;-87
2022/06/13 04:03:26;;;;;;;6.77;3.40;;;;;;;20.74;55.30;99776.44;4363945;32;34586;-87
2022/06/13 04:06:04;;;;;;;6.07;3.72;;;;;;;20.60;55.83;99762.16;4352163;32;32434;-88
2022/06/13 04:08:42;;;;;;;6.37;3.70;;;;;;;20.62;56.11;99771.94;4363814;32;33699;-87
2022/06/13 04:12:04;;;;;;;7.35;4.00;;;;;;;20.68;56.33;99770.00;4363771;32;34630;-87
2022/06/13 04:14:56;;;;;;;15.77;4.18;;;;;;;20.61;56.71;99769.41;4289735;33;34381;-87
2022/06/13 04:17:43;;;;;;;8.52;3.97;;;;;;;20.78;55.92;99767.25;4289542;33;32960;-86
2022/06/13 04:20:45;;;;;;;7.12;3.60;;;;;;;20.79;56.34;99768.94;4339227;32;33201;-87
2022/06/13 04:23:59;;;;;;;8.75;3.87;;;;;;;20.87;56.37;99775.91;4351539;32;32939;-87
2022/06/13 04:26:42;;;;;;;7.55;4.10;;;;;;;20.93;56.07;99769.22;4299109;32;33943;-85
2022/06/13 04:29:57;;;;;;;7.18;3.72;;;;;;;20.95;55.79;99769.78;4362903;32;34210;-86
2022/06/13 04:32:40;;;;;;;7.20;3.45;;;;;;;21.03;55.33;99777.63;4363167;32;32297;-84
2022/06/13 04:35:11;;;;;;;8.43;3.70;;;;;;;21.15;55.09;99783.78;4362350;32;34276;-85
2022/06/13 04:37:45;;;;;;;9.68;3.30;;;;;;;21.32;54.07;99787.19;4363242;32;34038;-86
2022/06/13 04:40:22;;;;;;;5.00;3.05;;;;;;;21.28;54.32;99788.03;4351160;32;31896;-86
2022/06/13 04:42:53;;;;;;;6.15;3.15;;;;;;;21.30;54.42;99783.00;4351705;32;33853;-82
2022/06/13 04:45:23;;;;;;;6.60;3.62;;;;;;;21.34;54.29;99779.37;4363125;32;32856;-85
2022/06/13 04:47:53;;;;;;;7.50;3.65;;;;;;;21.45;54.32;99776.59;4351153;32;33362;-84
2022/06/13 04:50:30;;;;;;;8.00;3.42;;;;;;;21.47;54.75;99777.12;4363079;32;32904;-85
2022/06/13 04:53:02;;;;;;;6.57;3.40;;;;;;;21.54;54.65;99772.13;4363543;32;33765;-84
2022/06/13 04:55:40;;;;;;;6.28;3.20;;;;;;;21.54;54.86;99760.94;4363091;32;33933;-84
2022/06/13 04:58:23;;;;;;;5.55;3.20;;;;;;;21.67;54.84;99771.56;4351036;32;34722;-78
2022/06/13 05:00:57;;;;;;;7.85;3.80;;;;;;;21.78;54.21;99776.03;4351280;32;33523;-79
2022/06/13 05:03:27;;;;;;;7.82;3.35;;;;;;;21.83;53.92;99773.22;4346227;32;32378;-84
2022/06/13 05:06:05;;;;;;;6.93;3.47;;;;;;;21.87;54.00;99774.34;4353243;32;34346;-83
2022/06/13 05:08:47;;;;;;;6.05;3.17;;;;;;;21.98;53.93;99772.37;4363122;32;34046;-84
2022/06/13 05:11:27;;;;;;;9.20;2.78;;;;;;;22.01;53.66;99769.88;4365616;32;34102;-83
2022/06/13 05:13:59;;;;;;;6.70;3.08;;;;;;;22.15;53.31;99769.28;4365724;32;34462;-82
2022/06/13 05:16:55;;;;;;;6.30;3.00;;;;;;;22.17;53.19;99761.44;4365439;32;33006;-82
2022/06/13 05:19:39;;;;;;;7.15;2.90;;;;;;;22.31;52.55;99768.12;4364204;32;34176;-83
2022/06/13 05:22:35;;;;;;;7.15;2.90;;;;;;;22.37;52.32;99775.38;4365158;32;33481;-85
2022/06/13 05:25:43;;;;;;;7.45;3.17;;;;;;;22.43;51.70;99773.41;4365461;32;32259;-83
2022/06/13 05:28:16;;;;;;;5.78;2.50;;;;;;;22.57;51.71;99774.47;4377425;32;33187;-83
2022/06/13 05:30:50;;;;;;;7.28;3.10;;;;;;;22.61;51.73;99782.00;4364645;32;34966;-83
2022/06/13 05:33:20;;;;;;;10.40;3.80;;;;;;;22.68;51.88;99774.13;4377513;32;32927;-83
2022/06/13 05:35:54;;;;;;;8.18;3.00;;;;;;;22.76;51.67;99780.22;4352961;32;32221;-85
2022/06/13 05:38:39;;;;;;;5.70;2.60;;;;;;;22.88;50.74;99776.00;4377425;32;34051;-83
2022/06/13 05:41:09;;;;;;;4.07;2.37;;;;;;;22.96;50.26;99772.59;4365544;32;34691;-83
2022/06/13 05:43:38;;;;;;;9.40;3.00;;;;;;;23.04;49.78;99773.97;4365157;32;33630;-83
2022/06/13 05:46:16;;;;;;;8.88;2.45;;;;;;;23.10;50.25;99767.22;4362464;32;34361;-83
2022/06/13 05:48:44;;;;;;;5.62;2.45;;;;;;;23.20;50.86;99760.72;4363081;32;34371;-83
2022/06/13 05:51:26;;;;;;;4.97;2.17;;;;;;;23.23;51.16;99760.13;4364083;32;33223;-83
2022/06/13 05:53:57;;;;;;;4.82;2.10;;;;;;;23.40;50.45;99771.75;4364701;32;31977;-84
2022/06/13 05:56:29;;;;;;;4.35;2.35;;;;;;;23.37;47.39;99763.13;4366314;32;34056;-84
2022/06/13 05:59:01;;;;;;;4.68;2.60;;;;;;;23.57;47.13;99768.56;4363980;32;32842;-85
2022/06/13 06:01:38;;;;;;;4.97;2.55;;;;;;;23.60;47.44;99763.22;4363568;32;32596;-83
2022/06/13 06:04:06;;;;;;;6.07;2.58;;;;;;;23.74;48.16;99768.16;4364971;32;33338;-83
2022/06/13 06:06:48;;;;;;;3.97;2.15;;;;;;;23.74;47.64;99763.38;4363311;32;33512;-82
2022/06/13 06:09:27;;;;;;;4.72;2.30;;;;;;;23.68;46.31;99760.91;4349997;32;34065;-83
2022/06/13 06:12:03;;;;;;;4.57;2.42;;;;;;;23.91;46.68;99760.97;4350247;32;33670;-83
2022/06/13 06:14:34;;;;;;;5.90;2.20;;;;;;;24.03;46.81;99766.19;4362283;32;32370;-83
2022/06/13 06:17:07;;;;;;;6.70;2.47;;;;;;;24.17;46.87;99763.50;4363268;32;33456;-83
2022/06/13 06:19:40;;;;;;;4.40;2.12;;;;;;;24.24;46.78;99763.97;4363291;32;34353;-83
2022/06/13 06:22:13;;;;;;;3.75;1.90;;;;;;;24.32;46.93;99756.91;4363034;32;32456;-84
2022/06/13 06:24:53;;;;;;;3.95;1.65;;;;;;;24.32;46.05;99757.75;4353070;32;34568;-84
2022/06/13 06:27:21;;;;;;;5.85;2.35;;;;;;;24.45;44.70;99759.84;4364583;32;32111;-84
2022/06/13 06:29:54;;;;;;;4.85;1.75;;;;;;;24.60;44.14;99762.47;4353078;32;34263;-83
2022/06/13 06:32:24;;;;;;;3.42;1.83;;;;;;;24.72;44.93;99753.59;4352913;32;33723;-84
2022/06/13 06:34:57;;;;;;;4.65;2.00;;;;;;;24.86;43.82;99756.50;4352484;32;31792;-83
2022/06/13 06:37:31;;;;;;;4.12;1.87;;;;;;;24.96;42.46;99764.81;4352270;32;32319;-84
2022/06/13 06:39:59;;;;;;;3.55;2.03;;;;;;;24.94;42.16;99764.25;4364946;32;34254;-84
2022/06/13 06:42:26;;;;;;;5.28;1.95;;;;;;;25.00;41.29;99765.88;4352286;32;33454;-86
2022/06/13 06:45:15;;;;;;;4.03;1.80;;;;;;;25.13;41.23;99758.69;4354348;32;31815;-84
2022/06/13 06:47:42;;;;;;;5.50;2.33;;;;;;;25.18;40.81;99762.25;4364891;32;34653;-84
2022/06/13 06:50:20;;;;;;;6.60;2.30;;;;;;;25.20;40.55;99764.75;4352025;32;34791;-84
2022/06/13 06:52:50;;;;;;;4.78;2.10;;;;;;;25.27;42.06;99752.00;4352428;32;32052;-85
2022/06/13 07:01:05;;;;;;;4.78;2.10;;;;;;;25.49;41.05;99754.16;4354405;32;32777;-86
2022/06/13 07:03:36;;;;;;;4.12;1.90;;;;;;;25.77;39.23;99741.06;4352602;32;34149;-85
2022/06/13 07:06:11;;;;;;;3.50;1.90;;;;;;;25.68;38.83;99756.97;4352672;32;32686;-84
2022/06/13 07:08:43;;;;;;;5.75;2.35;;;;;;;25.79;38.44;99754.81;4352111;32;32177;-84
2022/06/13 07:14:06;;;;;;;4.80;2.20;;;;;;;25.91;39.01;99760.78;4366769;32;35090;-84
2022/06/13 07:16:34;;;;;;;4.80;2.10;;;;;;;25.98;39.88;99764.03;4352251;32;33003;-85
2022/06/13 07:19:08;;;;;;;5.53;2.42;;;;;;;25.89;37.88;99760.25;4352478;32;32247;-83
2022/06/13 07:21:42;;;;;;;4.37;2.15;;;;;;;26.15;37.66;99760.59;4352201;32;32850;-85
2022/06/13 07:24:13;;;;;;;5.28;1.98;;;;;;;26.22;37.83;99758.22;4352128;32;32907;-84
2022/06/13 07:26:41;;;;;;;4.45;2.20;;;;;;;26.30;36.65;99757.50;4352419;32;33621;-85
2022/06/13 07:29:16;;;;;;;4.60;2.12;;;;;;;26.34;37.52;99752.94;4352353;32;33857;-84
2022/06/13 07:31:57;;;;;;;6.15;2.20;;;;;;;26.43;38.13;99755.88;4352675;32;35346;-85
2022/06/13 07:34:31;;;;;;;5.32;2.62;;;;;;;26.33;37.44;99754.09;4351767;32;32447;-83
2022/06/13 07:37:16;;;;;;;5.57;2.50;;;;;;;26.53;37.69;99752.84;4352617;32;33582;-83
2022/06/13 07:40:04;;;;;;;7.80;2.50;;;;;;;26.56;37.73;99758.69;4366401;32;34327;-83
2022/06/13 07:42:43;;;;;;;5.18;2.45;;;;;;;26.68;38.30;99754.50;4364857;32;35255;-84
2022/06/13 07:45:19;;;;;;;5.20;2.10;;;;;;;26.88;38.71;99751.22;4352509;32;34127;-83
2022/06/13 07:48:12;;;;;;;4.20;2.22;;;;;;;26.78;38.86;99752.28;4357547;32;34251;-84
2022/06/13 07:50:40;;;;;;;6.28;2.28;;;;;;;26.92;38.68;99746.62;4351973;32;33245;-84
2022/06/13 07:53:19;;;;;;;7.05;2.60;;;;;;;26.87;40.77;99755.19;4364617;32;34341;-84
2022/06/13 07:56:20;;;;;;;5.82;2.33;;;;;;;27.00;39.57;99753.53;4354484;32;33576;-85
2022/06/13 07:58:58;;;;;;;3.83;2.12;;;;;;;27.11;38.95;99747.38;4337674;32;32146;-81
2022/06/13 08:01:38;;;;;;;4.43;2.45;;;;;;;27.11;36.28;99747.38;4337163;32;33251;-81
2022/06/13 08:04:18;;;;;;;4.03;2.42;;;;;;;27.20;35.84;99745.47;4349718;32;33144;-80
2022/06/13 08:06:57;;;;;;;7.05;2.35;;;;;;;27.27;34.98;99749.81;4361751;32;34017;-79
2022/06/13 08:09:34;;;;;;;8.18;2.30;;;;;;;27.41;35.98;99745.78;4361364;32;33337;-80
2022/06/13 08:12:15;;;;;;;5.57;2.37;;;;;;;27.60;35.76;99731.53;4361463;32;34393;-80
2022/06/13 08:14:56;;;;;;;4.40;2.30;;;;;;;27.48;36.97;99729.25;4350671;32;34436;-80
2022/06/13 08:17:42;;;;;;;4.53;2.47;;;;;;;27.68;37.13;99733.59;4361327;32;33580;-80
2022/06/13 08:20:20;;;;;;;5.00;2.42;;;;;;;27.83;36.36;99730.38;4350609;32;32947;-80
2022/06/13 08:23:03;;;;;;;4.72;1.98;;;;;;;27.84;34.28;99732.03;4349457;32;33654;-79
2022/06/13 08:25:39;;;;;;;4.80;2.53;;;;;;;27.99;34.16;99732.75;4361225;32;35361;-81
2022/06/13 08:28:13;;;;;;;6.53;3.12;;;;;;;28.04;35.73;99730.62;4361135;32;34403;-80
2022/06/13 08:30:45;;;;;;;4.90;2.58;;;;;;;28.09;34.87;99726.84;4349070;32;31996;-80
2022/06/13 08:33:25;;;;;;;5.40;2.42;;;;;;;28.25;34.92;99736.56;4349433;32;33616;-80
2022/06/13 08:36:04;;;;;;;6.55;2.58;;;;;;;28.38;34.75;99730.00;4348899;32;34377;-80
2022/06/13 08:38:34;;;;;;;4.70;2.42;;;;;;;28.29;34.88;99725.47;4360974;32;32361;-79
2022/06/13 08:41:17;;;;;;;6.12;2.50;;;;;;;28.53;35.27;99734.37;4360871;32;33481;-79
2022/06/13 08:44:06;;;;;;;4.55;2.65;;;;;;;28.63;34.41;99730.38;4362170;32;33729;-79
2022/06/13 08:46:40;;;;;;;10.43;3.17;;;;;;;28.90;34.40;99732.97;4350502;32;35487;-81
2022/06/13 08:49:29;;;;;;;5.15;2.90;;;;;;;28.86;34.07;99740.44;4362968;32;34660;-81
2022/06/13 08:52:18;;;;;;;5.60;2.83;;;;;;;28.72;34.85;99726.44;4351110;32;33510;-80
2022/06/13 08:55:14;;;;;;;4.28;2.55;;;;;;;28.66;35.05;99724.09;4364409;32;33885;-79
2022/06/13 08:57:55;;;;;;;5.28;2.35;;;;;;;29.00;34.04;99718.53;4363517;32;34289;-80
2022/06/13 09:00:26;;;;;;;6.62;2.62;;;;;;;29.14;32.18;99713.56;4341894;32;32609;-80
2022/06/13 09:03:26;;;;;;;5.72;2.35;;;;;;;29.18;32.13;99716.56;4365382;32;33422;-80
2022/06/13 09:06:14;;;;;;;4.68;2.30;;;;;;;29.48;32.69;99714.72;4365853;32;34236;-79
2022/06/13 09:09:17;;;;;;;6.62;2.33;;;;;;;29.62;32.08;99711.72;4365643;32;34572;-79
2022/06/13 09:12:23;;;;;;;5.80;2.20;;;;;;;29.91;31.47;99710.97;4365249;32;33389;-75
2022/06/13 09:15:11;;;;;;;5.43;2.42;;;;;;;30.09;31.70;99709.78;4353240;32;32208;-82
2022/06/13 09:18:17;;;;;;;4.72;2.42;;;;;;;29.91;30.08;99700.50;4353414;32;32038;-82
2022/06/13 09:21:00;;;;;;;5.12;2.28;;;;;;;30.22;31.00;99707.91;4352861;32;33955;-84
2022/06/13 09:23:58;;;;;;;4.62;2.15;;;;;;;30.42;31.39;99695.84;4354732;32;33513;-82
2022/06/13 09:26:49;;;;;;;6.25;2.45;;;;;;;30.39;30.80;99691.69;4353003;32;32852;-83
2022/06/13 09:29:41;;;;;;;6.93;2.72;;;;;;;30.48;29.67;99695.31;4340849;32;33362;-83
2022/06/13 09:32:21;;;;;;;4.68;2.47;;;;;;;30.77;30.76;99687.97;4365317;32;34443;-82
2022/06/13 09:34:56;;;;;;;6.35;2.60;;;;;;;30.92;31.12;99686.53;4365360;32;34165;-82
2022/06/13 09:37:41;;;;;;;4.05;2.45;;;;;;;30.88;29.96;99685.56;4353171;32;32932;-82
2022/06/13 09:40:21;;;;;;;5.93;2.62;;;;;;;30.94;29.25;99679.34;4352830;32;33249;-82
2022/06/13 09:43:13;;;;;;;9.17;2.63;;;;;;;31.09;29.47;99680.75;4354404;32;34447;-83
2022/06/13 09:46:03;;;;;;;4.90;2.45;;;;;;;31.25;29.10;99667.59;4365582;32;34709;-83
2022/06/13 09:49:02;;;;;;;6.72;2.60;;;;;;;31.38;28.22;99671.31;4365391;32;34182;-82
2022/06/13 09:52:01;;;;;;;4.85;2.53;;;;;;;31.44;28.04;99667.94;4320340;33;32424;-83
2022/06/13 09:55:02;;;;;;;5.40;2.47;;;;;;;31.71;28.73;99662.84;4352797;32;34186;-83
2022/06/13 09:57:49;;;;;;;7.53;2.70;;;;;;;32.00;29.05;99658.97;4365441;32;34398;-82
2022/06/13 10:05:15;;;;;;;4.82;2.30;;;;;;;32.20;27.30;99655.22;4378550;32;34714;-83
2022/06/13 10:07:59;;;;;;;7.50;2.30;;;;;;;32.58;28.15;99645.53;4341383;32;34329;-82
2022/06/13 10:10:40;;;;;;;6.15;2.67;;;;;;;32.58;26.78;99640.66;4365352;32;34060;-83
2022/06/13 10:14:03;;;;;;;4.22;2.30;;;;;;;32.70;27.61;99642.66;4365183;32;33336;-82
2022/06/13 10:17:11;;;;;;;6.75;2.37;;;;;;;32.82;25.62;99639.84;4350112;32;33415;-82
2022/06/13 10:20:34;;;;;;;4.80;2.92;;;;;;;32.64;26.15;99639.22;4355355;32;33789;-82
2022/06/13 10:23:18;;;;;;;5.28;2.60;;;;;;;33.04;27.42;99632.78;4353479;32;34479;-83
2022/06/13 10:25:57;;;;;;;5.20;2.47;;;;;;;33.05;26.56;99623.91;4364619;32;33402;-82
2022/06/13 10:28:57;;;;;;;6.80;2.40;;;;;;;33.05;27.19;99617.38;4364321;32;33563;-82
2022/06/13 10:32:00;;;;;;;5.20;2.55;;;;;;;33.38;27.25;99622.81;4364718;32;33169;-83
2022/06/13 10:35:04;;;;;;;11.57;8.30;;;;;;;33.66;27.81;99611.41;4352483;32;32415;-84
2022/06/13 10:37:32;;;;;;;41.70;37.20;;;;;;;33.79;26.47;99609.31;4350788;32;33073;-82
2022/06/13 10:40:07;;;;;;;8.50;4.57;;;;;;;33.82;25.90;99606.56;4365094;32;33785;-83
2022/06/13 10:42:36;;;;;;;4.87;2.85;;;;;;;33.63;26.23;99601.59;4365349;32;35348;-83
2022/06/13 10:45:10;;;;;;;6.43;2.33;;;;;;;33.41;26.65;99599.34;4364848;32;33654;-83
2022/06/13 10:47:48;;;;;;;5.85;2.50;;;;;;;33.61;25.65;99594.59;4353183;32;32143;-81
2022/06/13 10:50:31;;;;;;;5.47;2.30;;;;;;;33.86;25.98;99592.41;4365288;32;33567;-82
2022/06/13 10:53:13;;;;;;;4.28;2.25;;;;;;;33.94;25.37;99594.25;4363796;32;34048;-83
2022/06/13 10:55:50;;;;;;;5.15;2.50;;;;;;;33.95;25.04;99595.91;4365116;32;34745;-83
2022/06/13 10:58:29;;;;;;;5.07;2.42;;;;;;;34.08;25.98;99585.25;4352185;32;32999;-81
2022/06/13 11:01:13;;;;;;;4.25;2.28;;;;;;;34.29;25.71;99588.63;4351931;32;34503;-83
2022/06/13 11:04:06;;;;;;;3.72;2.12;;;;;;;34.13;25.16;99571.56;4361991;32;34281;-82
2022/06/13 11:07:04;;;;;;;5.72;2.65;;;;;;;33.51;24.22;99576.03;4376996;32;33811;-83
2022/06/13 11:09:47;;;;;;;5.05;2.50;;;;;;;33.75;25.00;99569.38;4363294;32;34598;-83
2022/06/13 11:12:27;;;;;;;4.50;2.25;;;;;;;33.88;25.91;99561.56;4351744;32;33607;-83
2022/06/13 11:24:02;;;;;;;6.03;2.45;;;;;;;33.54;25.96;99546.84;4365557;32;33809;-82
2022/06/13 11:29:33;;;;;;;6.10;2.35;;;;;;;33.07;26.57;99566.66;4352887;32;32531;-84
2022/06/13 11:32:28;;;;;;;5.60;2.30;;;;;;;32.38;27.89;99560.09;4363325;32;32076;-85
2022/06/13 11:34:59;;;;;;;6.82;2.60;;;;;;;32.08;29.01;99553.81;4351061;32;32299;-83
2022/06/13 11:37:26;;;;;;;6.45;2.65;;;;;;;32.17;29.69;99555.72;4338838;32;33739;-83
2022/06/13 11:39:59;;;;;;;7.10;2.78;;;;;;;32.08;30.27;99559.50;4349884;32;32538;-83
2022/06/13 11:42:33;;;;;;;9.38;2.92;;;;;;;31.85;30.58;99560.34;4364371;32;33605;-83
2022/06/13 11:45:26;;;;;;;7.80;3.05;;;;;;;31.35;31.75;99552.91;4363692;32;32805;-83
2022/06/13 11:47:58;;;;;;;6.75;3.30;;;;;;;31.94;31.31;99547.66;4351804;32;33697;-83
2022/06/13 11:50:34;;;;;;;6.97;2.92;;;;;;;32.10;30.58;99551.44;4363165;32;33546;-83
2022/06/13 11:56:01;;;;;;;6.87;3.10;;;;;;;31.75;30.70;99541.78;4365531;32;34026;-84
2022/06/13 11:58:41;;;;;;;6.05;3.20;;;;;;;32.18;29.80;99540.31;4349530;32;676723;-83
2022/06/13 12:01:31;;;;;;;8.95;2.90;;;;;;;32.42;30.24;99518.44;4357350;32;32547;-82
2022/06/13 12:04:16;;;;;;;5.78;2.92;;;;;;;32.75;28.85;99531.56;4349184;32;33463;-84
2022/06/13 12:07:00;;;;;;;6.78;2.75;;;;;;;32.75;28.95;99528.72;4349168;32;33142;-83
2022/06/13 12:09:37;;;;;;;4.50;2.50;;;;;;;32.82;29.00;99525.28;4337609;32;34405;-78
2022/06/13 12:12:25;;;;;;;4.43;2.20;;;;;;;32.71;28.65;99524.94;4349935;32;32560;-81
2022/06/13 12:14:59;;;;;;;4.78;2.62;;;;;;;33.08;27.29;99516.28;4361933;32;35746;-82
2022/06/13 12:17:52;;;;;;;7.93;5.78;;;;;;;33.43;26.30;99505.06;4348864;32;33350;-82
2022/06/13 12:20:47;;;;;;;5.00;2.60;;;;;;;33.45;25.71;99502.69;4349430;32;33881;-81
2022/06/13 12:23:27;;;;;;;5.50;2.87;;;;;;;32.96;26.28;99500.94;4363555;32;34193;-82
2022/06/13 12:26:08;;;;;;;6.57;2.50;;;;;;;33.23;26.89;99493.53;4363210;32;33504;-82
2022/06/13 12:28:59;;;;;;;4.60;3.20;;;;;;;33.03;26.68;99506.84;4350970;32;33843;-83
2022/06/13 12:31:43;;;;;;;5.05;2.62;;;;;;;33.11;28.54;99505.03;4351223;32;35316;-82
2022/06/13 12:34:23;;;;;;;7.47;2.42;;;;;;;32.81;28.53;99507.41;4363206;32;32402;-82
2022/06/13 12:37:22;;;;;;;7.93;2.70;;;;;;;32.59;27.01;99502.25;4362949;32;34121;-83
2022/06/13 12:40:19;;;;;;;6.85;2.70;;;;;;;33.12;27.01;99500.97;4346535;32;32257;-82
2022/06/13 12:43:19;;;;;;;6.62;2.58;;;;;;;33.08;27.31;99496.38;4339119;32;33962;-82
2022/06/13 12:46:12;;;;;;;7.80;3.03;;;;;;;33.17;27.22;99492.16;4363047;32;33666;-82
2022/06/13 12:48:51;;;;;;;3.97;2.50;;;;;;;33.52;26.65;99488.66;4350934;32;34418;-82
2022/06/13 12:51:51;;;;;;;7.07;3.28;;;;;;;32.63;26.75;99483.28;4351146;32;33784;-84
2022/06/13 12:55:07;;;;;;;6.82;2.75;;;;;;;33.14;27.22;99473.00;4350611;32;32659;-85
2022/06/13 12:57:54;;;;;;;8.30;3.45;;;;;;;33.00;26.80;99476.28;4336856;32;34127;-84
2022/06/13 13:00:28;;;;;;;8.73;3.55;;;;;;;33.13;29.74;99488.41;4326323;32;33019;-85
2022/06/13 13:03:25;;;;;;;10.35;3.60;;;;;;;33.15;30.28;99485.22;4362951;32;32655;-84
2022/06/13 13:06:02;;;;;;;10.55;3.33;;;;;;;33.03;30.63;99492.63;4353970;32;32776;-84
2022/06/13 13:08:45;;;;;;;8.15;3.75;;;;;;;33.05;30.74;99486.56;4357690;32;34031;-83
2022/06/13 13:11:41;;;;;;;5.72;3.60;;;;;;;32.70;31.49;99506.25;4359718;32;32782;-84